sensor_id;sensor_type;location;lat;lon;timestamp;P1;durP1;ratioP1;P2;durP2;ratioP2
19199;SDS011;9732;52.498;5.408;2022-10-16T00:01:45;4.97;;;1.30;;
19199;SDS011;9732;52.498;5.408;2022-10-16T00:04:12;5.30;;;1.40;;
19199;SDS011;9732;52.498;5.408;2022-10-16T00:06:39;3.20;;;1.40;;
19199;SDS011;9732;52.498;5.408;2022-10-16T00:09:06;3.75;;;1.70;;
19199;SDS011;9732;52.498;5.408;2022-10-16T00:11:35;2.65;;;1.60;;
19199;SDS011;9732;52.498;5.408;2022-10-16T00:14:05;3.67;;;1.52;;
19199;SDS011;9732;52.498;5.408;2022-10-16T00:16:35;3.97;;;1.33;;
19199;SDS011;9732;52.498;5.408;2022-10-16T00:19:02;11.90;;;1.90;;
19199;SDS011;9732;52.498;5.408;2022-10-16T00:21:30;6.88;;;1.65;;
19199;SDS011;9732;52.498;5.408;2022-10-16T00:24:00;3.78;;;1.42;;
19199;SDS011;9732;52.498;5.408;2022-10-16T00:26:29;2.72;;;1.60;;
19199;SDS011;9732;52.498;5.408;2022-10-16T00:28:58;5.40;;;1.60;;
19199;SDS011;9732;52.498;5.408;2022-10-16T00:31:26;3.00;;;1.50;;
19199;SDS011;9732;52.498;5.408;2022-10-16T00:33:53;4.25;;;1.45;;
19199;SDS011;9732;52.498;5.408;2022-10-16T00:36:20;4.70;;;1.80;;
19199;SDS011;9732;52.498;5.408;2022-10-16T00:38:49;6.20;;;2.47;;
19199;SDS011;9732;52.498;5.408;2022-10-16T00:41:17;5.32;;;1.70;;
19199;SDS011;9732;52.498;5.408;2022-10-16T00:43:45;6.45;;;1.63;;
19199;SDS011;9732;52.498;5.408;2022-10-16T00:46:15;5.63;;;2.10;;
19199;SDS011;9732;52.498;5.408;2022-10-16T00:48:46;6.47;;;1.83;;
19199;SDS011;9732;52.498;5.408;2022-10-16T00:51:18;5.35;;;1.88;;
19199;SDS011;9732;52.498;5.408;2022-10-16T00:53:49;5.93;;;1.90;;
19199;SDS011;9732;52.498;5.408;2022-10-16T00:56:16;5.07;;;1.60;;
19199;SDS011;9732;52.498;5.408;2022-10-16T00:58:43;3.58;;;1.70;;
19199;SDS011;9732;52.498;5.408;2022-10-16T01:01:10;6.95;;;2.35;;
19199;SDS011;9732;52.498;5.408;2022-10-16T01:03:37;6.03;;;2.00;;
19199;SDS011;9732;52.498;5.408;2022-10-16T01:06:11;5.20;;;1.60;;
19199;SDS011;9732;52.498;5.408;2022-10-16T01:08:50;6.13;;;1.90;;
19199;SDS011;9732;52.498;5.408;2022-10-16T01:11:25;9.75;;;2.17;;
19199;SDS011;9732;52.498;5.408;2022-10-16T01:14:00;3.90;;;1.85;;
19199;SDS011;9732;52.498;5.408;2022-10-16T01:16:33;6.45;;;2.05;;
19199;SDS011;9732;52.498;5.408;2022-10-16T01:19:08;5.32;;;1.98;;
19199;SDS011;9732;52.498;5.408;2022-10-16T01:21:40;6.80;;;1.77;;
19199;SDS011;9732;52.498;5.408;2022-10-16T01:24:11;4.75;;;1.70;;
19199;SDS011;9732;52.498;5.408;2022-10-16T01:29:36;3.58;;;1.80;;
19199;SDS011;9732;52.498;5.408;2022-10-16T01:32:10;6.13;;;2.15;;
19199;SDS011;9732;52.498;5.408;2022-10-16T01:34:44;4.10;;;1.88;;
19199;SDS011;9732;52.498;5.408;2022-10-16T01:37:16;3.65;;;1.90;;
19199;SDS011;9732;52.498;5.408;2022-10-16T01:39:48;4.28;;;1.80;;
19199;SDS011;9732;52.498;5.408;2022-10-16T01:42:18;5.47;;;1.92;;
19199;SDS011;9732;52.498;5.408;2022-10-16T01:44:49;6.15;;;1.90;;
19199;SDS011;9732;52.498;5.408;2022-10-16T01:47:17;3.58;;;1.50;;
19199;SDS011;9732;52.498;5.408;2022-10-16T01:49:48;4.05;;;2.05;;
19199;SDS011;9732;52.498;5.408;2022-10-16T01:52:17;4.75;;;1.50;;
19199;SDS011;9732;52.498;5.408;2022-10-16T01:54:47;3.38;;;1.60;;
19199;SDS011;9732;52.498;5.408;2022-10-16T01:57:18;4.55;;;1.45;;
19199;SDS011;9732;52.498;5.408;2022-10-16T01:59:48;2.03;;;1.42;;
19199;SDS011;9732;52.498;5.408;2022-10-16T02:02:18;2.35;;;1.25;;
19199;SDS011;9732;52.498;5.408;2022-10-16T02:04:49;3.92;;;1.38;;
19199;SDS011;9732;52.498;5.408;2022-10-16T02:07:23;3.53;;;1.30;;
19199;SDS011;9732;52.498;5.408;2022-10-16T02:09:50;1.92;;;1.17;;
19199;SDS011;9732;52.498;5.408;2022-10-16T02:12:21;3.00;;;1.15;;
19199;SDS011;9732;52.498;5.408;2022-10-16T02:14:52;4.10;;;1.20;;
19199;SDS011;9732;52.498;5.408;2022-10-16T02:17:19;4.20;;;1.10;;
19199;SDS011;9732;52.498;5.408;2022-10-16T02:19:47;7.93;;;1.00;;
19199;SDS011;9732;52.498;5.408;2022-10-16T02:22:17;4.30;;;1.38;;
19199;SDS011;9732;52.498;5.408;2022-10-16T02:24:49;4.05;;;1.55;;
19199;SDS011;9732;52.498;5.408;2022-10-16T02:27:22;4.20;;;1.45;;
19199;SDS011;9732;52.498;5.408;2022-10-16T02:29:53;1.85;;;1.20;;
19199;SDS011;9732;52.498;5.408;2022-10-16T02:32:27;1.92;;;1.10;;
19199;SDS011;9732;52.498;5.408;2022-10-16T02:34:57;2.63;;;1.17;;
19199;SDS011;9732;52.498;5.408;2022-10-16T02:37:26;2.90;;;1.42;;
19199;SDS011;9732;52.498;5.408;2022-10-16T02:39:54;1.98;;;1.30;;
19199;SDS011;9732;52.498;5.408;2022-10-16T02:42:27;2.10;;;1.10;;
19199;SDS011;9732;52.498;5.408;2022-10-16T02:44:54;1.73;;;1.30;;
19199;SDS011;9732;52.498;5.408;2022-10-16T02:47:21;1.77;;;1.23;;
19199;SDS011;9732;52.498;5.408;2022-10-16T02:49:47;2.10;;;1.30;;
19199;SDS011;9732;52.498;5.408;2022-10-16T02:52:14;5.40;;;1.27;;
19199;SDS011;9732;52.498;5.408;2022-10-16T02:54:41;6.70;;;1.90;;
19199;SDS011;9732;52.498;5.408;2022-10-16T02:57:07;5.20;;;1.52;;
19199;SDS011;9732;52.498;5.408;2022-10-16T02:59:35;2.35;;;1.30;;
19199;SDS011;9732;52.498;5.408;2022-10-16T03:02:02;2.60;;;1.20;;
19199;SDS011;9732;52.498;5.408;2022-10-16T03:04:29;3.13;;;1.45;;
19199;SDS011;9732;52.498;5.408;2022-10-16T03:06:56;7.43;;;1.65;;
19199;SDS011;9732;52.498;5.408;2022-10-16T03:09:23;3.22;;;1.73;;
19199;SDS011;9732;52.498;5.408;2022-10-16T03:11:49;5.03;;;1.75;;
19199;SDS011;9732;52.498;5.408;2022-10-16T03:14:17;2.08;;;1.40;;
19199;SDS011;9732;52.498;5.408;2022-10-16T03:16:45;6.22;;;1.40;;
19199;SDS011;9732;52.498;5.408;2022-10-16T03:19:12;3.88;;;1.80;;
19199;SDS011;9732;52.498;5.408;2022-10-16T03:21:38;4.03;;;1.40;;
19199;SDS011;9732;52.498;5.408;2022-10-16T03:24:05;7.15;;;1.77;;
19199;SDS011;9732;52.498;5.408;2022-10-16T03:26:32;3.95;;;1.65;;
19199;SDS011;9732;52.498;5.408;2022-10-16T03:28:59;7.90;;;1.73;;
19199;SDS011;9732;52.498;5.408;2022-10-16T03:31:27;1.80;;;1.55;;
19199;SDS011;9732;52.498;5.408;2022-10-16T03:33:55;5.30;;;1.55;;
19199;SDS011;9732;52.498;5.408;2022-10-16T03:36:22;7.22;;;2.05;;
19199;SDS011;9732;52.498;5.408;2022-10-16T03:38:49;2.72;;;2.10;;
19199;SDS011;9732;52.498;5.408;2022-10-16T03:41:16;3.65;;;2.20;;
19199;SDS011;9732;52.498;5.408;2022-10-16T03:43:43;4.15;;;2.22;;
19199;SDS011;9732;52.498;5.408;2022-10-16T03:46:10;5.85;;;2.20;;
19199;SDS011;9732;52.498;5.408;2022-10-16T03:48:36;6.55;;;2.08;;
19199;SDS011;9732;52.498;5.408;2022-10-16T03:51:06;3.38;;;2.60;;
19199;SDS011;9732;52.498;5.408;2022-10-16T03:53:32;5.32;;;2.15;;
19199;SDS011;9732;52.498;5.408;2022-10-16T03:55:59;3.28;;;2.20;;
19199;SDS011;9732;52.498;5.408;2022-10-16T03:58:26;6.45;;;2.20;;
19199;SDS011;9732;52.498;5.408;2022-10-16T04:00:53;5.03;;;2.08;;
19199;SDS011;9732;52.498;5.408;2022-10-16T04:03:20;6.47;;;1.95;;
19199;SDS011;9732;52.498;5.408;2022-10-16T04:05:48;4.93;;;1.98;;
19199;SDS011;9732;52.498;5.408;2022-10-16T04:08:16;2.33;;;1.77;;
19199;SDS011;9732;52.498;5.408;2022-10-16T04:10:43;5.70;;;2.13;;
19199;SDS011;9732;52.498;5.408;2022-10-16T04:13:10;5.10;;;1.88;;
19199;SDS011;9732;52.498;5.408;2022-10-16T04:15:37;8.20;;;2.08;;
19199;SDS011;9732;52.498;5.408;2022-10-16T04:18:04;2.58;;;1.88;;
19199;SDS011;9732;52.498;5.408;2022-10-16T04:20:31;5.75;;;1.95;;
19199;SDS011;9732;52.498;5.408;2022-10-16T04:22:58;3.72;;;1.90;;
19199;SDS011;9732;52.498;5.408;2022-10-16T04:25:26;4.18;;;1.67;;
19199;SDS011;9732;52.498;5.408;2022-10-16T04:27:53;3.90;;;1.67;;
19199;SDS011;9732;52.498;5.408;2022-10-16T04:30:20;2.83;;;1.50;;
19199;SDS011;9732;52.498;5.408;2022-10-16T04:32:48;3.67;;;1.80;;
19199;SDS011;9732;52.498;5.408;2022-10-16T04:35:15;4.78;;;1.80;;
19199;SDS011;9732;52.498;5.408;2022-10-16T04:37:42;3.83;;;1.88;;
19199;SDS011;9732;52.498;5.408;2022-10-16T04:40:09;6.30;;;1.73;;
19199;SDS011;9732;52.498;5.408;2022-10-16T04:42:37;3.45;;;1.95;;
19199;SDS011;9732;52.498;5.408;2022-10-16T04:45:05;6.03;;;2.03;;
19199;SDS011;9732;52.498;5.408;2022-10-16T04:47:33;2.80;;;1.70;;
19199;SDS011;9732;52.498;5.408;2022-10-16T04:50:00;4.18;;;1.83;;
19199;SDS011;9732;52.498;5.408;2022-10-16T04:52:27;3.42;;;1.90;;
19199;SDS011;9732;52.498;5.408;2022-10-16T04:54:54;4.03;;;1.67;;
19199;SDS011;9732;52.498;5.408;2022-10-16T04:57:25;2.60;;;1.88;;
19199;SDS011;9732;52.498;5.408;2022-10-16T04:59:54;4.13;;;1.90;;
19199;SDS011;9732;52.498;5.408;2022-10-16T05:02:21;3.88;;;1.70;;
19199;SDS011;9732;52.498;5.408;2022-10-16T05:04:47;5.28;;;2.00;;
19199;SDS011;9732;52.498;5.408;2022-10-16T05:07:14;5.22;;;1.98;;
19199;SDS011;9732;52.498;5.408;2022-10-16T05:09:41;7.07;;;2.10;;
19199;SDS011;9732;52.498;5.408;2022-10-16T05:12:08;5.70;;;1.75;;
19199;SDS011;9732;52.498;5.408;2022-10-16T05:14:35;6.03;;;1.60;;
19199;SDS011;9732;52.498;5.408;2022-10-16T05:17:03;3.80;;;1.73;;
19199;SDS011;9732;52.498;5.408;2022-10-16T05:19:29;4.47;;;1.67;;
19199;SDS011;9732;52.498;5.408;2022-10-16T05:21:56;7.43;;;2.45;;
19199;SDS011;9732;52.498;5.408;2022-10-16T05:24:23;2.42;;;1.55;;
19199;SDS011;9732;52.498;5.408;2022-10-16T05:26:50;5.13;;;2.28;;
19199;SDS011;9732;52.498;5.408;2022-10-16T05:29:17;4.25;;;1.80;;
19199;SDS011;9732;52.498;5.408;2022-10-16T05:31:43;4.30;;;1.92;;
19199;SDS011;9732;52.498;5.408;2022-10-16T05:34:11;3.10;;;1.90;;
19199;SDS011;9732;52.498;5.408;2022-10-16T05:36:38;6.03;;;2.05;;
19199;SDS011;9732;52.498;5.408;2022-10-16T05:39:05;5.45;;;1.80;;
19199;SDS011;9732;52.498;5.408;2022-10-16T05:41:31;3.88;;;1.70;;
19199;SDS011;9732;52.498;5.408;2022-10-16T05:43:58;5.85;;;1.67;;
19199;SDS011;9732;52.498;5.408;2022-10-16T05:46:25;5.80;;;1.95;;
19199;SDS011;9732;52.498;5.408;2022-10-16T05:48:52;8.35;;;2.05;;
19199;SDS011;9732;52.498;5.408;2022-10-16T05:51:20;5.40;;;1.85;;
19199;SDS011;9732;52.498;5.408;2022-10-16T05:53:47;4.57;;;1.88;;
19199;SDS011;9732;52.498;5.408;2022-10-16T05:56:14;4.72;;;2.67;;
19199;SDS011;9732;52.498;5.408;2022-10-16T05:58:41;5.57;;;2.30;;
19199;SDS011;9732;52.498;5.408;2022-10-16T06:01:10;6.25;;;2.22;;
19199;SDS011;9732;52.498;5.408;2022-10-16T06:03:37;4.28;;;2.13;;
19199;SDS011;9732;52.498;5.408;2022-10-16T06:06:08;4.60;;;2.08;;
19199;SDS011;9732;52.498;5.408;2022-10-16T06:08:38;4.60;;;2.20;;
19199;SDS011;9732;52.498;5.408;2022-10-16T06:11:05;5.53;;;2.08;;
19199;SDS011;9732;52.498;5.408;2022-10-16T06:13:33;5.75;;;2.28;;
19199;SDS011;9732;52.498;5.408;2022-10-16T06:16:00;4.85;;;2.25;;
19199;SDS011;9732;52.498;5.408;2022-10-16T06:18:28;3.42;;;2.40;;
19199;SDS011;9732;52.498;5.408;2022-10-16T06:20:55;7.32;;;2.08;;
19199;SDS011;9732;52.498;5.408;2022-10-16T06:23:23;4.05;;;2.30;;
19199;SDS011;9732;52.498;5.408;2022-10-16T06:25:51;4.72;;;1.83;;
19199;SDS011;9732;52.498;5.408;2022-10-16T06:28:18;2.95;;;1.95;;
19199;SDS011;9732;52.498;5.408;2022-10-16T06:30:44;4.82;;;2.50;;
19199;SDS011;9732;52.498;5.408;2022-10-16T06:33:11;4.53;;;1.85;;
19199;SDS011;9732;52.498;5.408;2022-10-16T06:35:38;3.97;;;1.50;;
19199;SDS011;9732;52.498;5.408;2022-10-16T06:38:05;5.50;;;1.80;;
19199;SDS011;9732;52.498;5.408;2022-10-16T06:40:31;6.63;;;1.48;;
19199;SDS011;9732;52.498;5.408;2022-10-16T06:42:59;1.73;;;1.48;;
19199;SDS011;9732;52.498;5.408;2022-10-16T06:45:26;3.63;;;1.23;;
19199;SDS011;9732;52.498;5.408;2022-10-16T06:47:53;3.33;;;1.30;;
19199;SDS011;9732;52.498;5.408;2022-10-16T06:50:19;5.95;;;1.40;;
19199;SDS011;9732;52.498;5.408;2022-10-16T06:52:46;2.70;;;1.50;;
19199;SDS011;9732;52.498;5.408;2022-10-16T06:55:13;7.50;;;1.65;;
19199;SDS011;9732;52.498;5.408;2022-10-16T06:57:40;2.22;;;1.50;;
19199;SDS011;9732;52.498;5.408;2022-10-16T07:00:08;2.60;;;1.60;;
19199;SDS011;9732;52.498;5.408;2022-10-16T07:02:35;3.72;;;1.45;;
19199;SDS011;9732;52.498;5.408;2022-10-16T07:05:02;2.88;;;1.77;;
19199;SDS011;9732;52.498;5.408;2022-10-16T07:07:29;3.45;;;1.67;;
19199;SDS011;9732;52.498;5.408;2022-10-16T07:09:56;6.22;;;2.42;;
19199;SDS011;9732;52.498;5.408;2022-10-16T07:12:23;5.22;;;3.25;;
19199;SDS011;9732;52.498;5.408;2022-10-16T07:14:50;6.78;;;1.90;;
19199;SDS011;9732;52.498;5.408;2022-10-16T07:17:20;10.50;;;2.40;;
19199;SDS011;9732;52.498;5.408;2022-10-16T07:19:47;3.28;;;2.17;;
19199;SDS011;9732;52.498;5.408;2022-10-16T07:22:13;3.35;;;2.10;;
19199;SDS011;9732;52.498;5.408;2022-10-16T07:24:40;5.55;;;2.63;;
19199;SDS011;9732;52.498;5.408;2022-10-16T07:27:08;5.03;;;2.67;;
19199;SDS011;9732;52.498;5.408;2022-10-16T07:29:35;2.75;;;2.22;;
19199;SDS011;9732;52.498;5.408;2022-10-16T07:32:01;3.33;;;2.13;;
19199;SDS011;9732;52.498;5.408;2022-10-16T07:34:30;4.20;;;2.55;;
19199;SDS011;9732;52.498;5.408;2022-10-16T07:36:56;7.57;;;2.28;;
19199;SDS011;9732;52.498;5.408;2022-10-16T07:39:23;6.63;;;2.25;;
19199;SDS011;9732;52.498;5.408;2022-10-16T07:41:50;8.15;;;2.50;;
19199;SDS011;9732;52.498;5.408;2022-10-16T07:44:16;6.43;;;2.53;;
19199;SDS011;9732;52.498;5.408;2022-10-16T07:46:43;5.50;;;2.20;;
19199;SDS011;9732;52.498;5.408;2022-10-16T07:49:10;7.65;;;2.50;;
19199;SDS011;9732;52.498;5.408;2022-10-16T07:51:38;8.02;;;2.30;;
19199;SDS011;9732;52.498;5.408;2022-10-16T07:54:05;3.90;;;2.10;;
19199;SDS011;9732;52.498;5.408;2022-10-16T07:56:31;4.28;;;1.75;;
19199;SDS011;9732;52.498;5.408;2022-10-16T07:58:58;8.02;;;1.85;;
19199;SDS011;9732;52.498;5.408;2022-10-16T08:01:25;3.75;;;1.80;;
19199;SDS011;9732;52.498;5.408;2022-10-16T08:03:52;4.80;;;1.73;;
19199;SDS011;9732;52.498;5.408;2022-10-16T08:06:19;8.35;;;1.70;;
19199;SDS011;9732;52.498;5.408;2022-10-16T08:08:49;10.38;;;1.42;;
19199;SDS011;9732;52.498;5.408;2022-10-16T08:11:15;5.13;;;1.58;;
19199;SDS011;9732;52.498;5.408;2022-10-16T08:13:42;4.20;;;1.60;;
19199;SDS011;9732;52.498;5.408;2022-10-16T08:16:09;5.05;;;1.30;;
19199;SDS011;9732;52.498;5.408;2022-10-16T08:18:36;7.75;;;1.48;;
19199;SDS011;9732;52.498;5.408;2022-10-16T08:21:04;5.47;;;1.40;;
19199;SDS011;9732;52.498;5.408;2022-10-16T08:23:32;6.38;;;1.30;;
19199;SDS011;9732;52.498;5.408;2022-10-16T08:26:03;5.13;;;1.35;;
19199;SDS011;9732;52.498;5.408;2022-10-16T08:28:32;7.75;;;1.33;;
19199;SDS011;9732;52.498;5.408;2022-10-16T08:31:06;7.25;;;1.60;;
19199;SDS011;9732;52.498;5.408;2022-10-16T08:33:34;1.75;;;1.45;;
19199;SDS011;9732;52.498;5.408;2022-10-16T08:36:02;6.40;;;1.25;;
19199;SDS011;9732;52.498;5.408;2022-10-16T08:38:29;5.10;;;1.30;;
19199;SDS011;9732;52.498;5.408;2022-10-16T08:40:57;5.75;;;1.55;;
19199;SDS011;9732;52.498;5.408;2022-10-16T08:43:40;8.65;;;1.55;;
19199;SDS011;9732;52.498;5.408;2022-10-16T08:46:18;5.93;;;1.50;;
19199;SDS011;9732;52.498;5.408;2022-10-16T08:49:00;12.80;;;2.00;;
19199;SDS011;9732;52.498;5.408;2022-10-16T08:51:30;8.60;;;2.35;;
19199;SDS011;9732;52.498;5.408;2022-10-16T08:54:01;7.30;;;2.22;;
19199;SDS011;9732;52.498;5.408;2022-10-16T08:56:31;10.30;;;1.73;;
19199;SDS011;9732;52.498;5.408;2022-10-16T08:58:58;9.43;;;1.70;;
19199;SDS011;9732;52.498;5.408;2022-10-16T09:01:29;3.08;;;1.27;;
19199;SDS011;9732;52.498;5.408;2022-10-16T09:04:07;7.13;;;1.60;;
19199;SDS011;9732;52.498;5.408;2022-10-16T09:06:58;9.52;;;1.63;;
19199;SDS011;9732;52.498;5.408;2022-10-16T09:09:41;9.15;;;1.90;;
19199;SDS011;9732;52.498;5.408;2022-10-16T09:12:22;7.70;;;1.83;;
19199;SDS011;9732;52.498;5.408;2022-10-16T09:14:55;6.10;;;1.90;;
19199;SDS011;9732;52.498;5.408;2022-10-16T09:17:32;12.43;;;2.17;;
19199;SDS011;9732;52.498;5.408;2022-10-16T09:20:12;11.68;;;3.15;;
19199;SDS011;9732;52.498;5.408;2022-10-16T09:22:45;8.32;;;1.90;;
19199;SDS011;9732;52.498;5.408;2022-10-16T09:25:13;11.00;;;2.10;;
19199;SDS011;9732;52.498;5.408;2022-10-16T09:27:44;24.17;;;2.40;;
19199;SDS011;9732;52.498;5.408;2022-10-16T09:30:14;10.52;;;1.80;;
19199;SDS011;9732;52.498;5.408;2022-10-16T09:32:43;8.23;;;1.50;;
19199;SDS011;9732;52.498;5.408;2022-10-16T09:35:13;5.13;;;1.50;;
19199;SDS011;9732;52.498;5.408;2022-10-16T09:37:43;9.10;;;1.85;;
19199;SDS011;9732;52.498;5.408;2022-10-16T09:40:13;8.40;;;1.80;;
19199;SDS011;9732;52.498;5.408;2022-10-16T09:42:51;4.15;;;1.73;;
19199;SDS011;9732;52.498;5.408;2022-10-16T09:45:23;9.30;;;1.73;;
19199;SDS011;9732;52.498;5.408;2022-10-16T09:47:50;10.95;;;1.92;;
19199;SDS011;9732;52.498;5.408;2022-10-16T09:50:20;6.03;;;1.90;;
19199;SDS011;9732;52.498;5.408;2022-10-16T09:52:50;9.15;;;1.60;;
19199;SDS011;9732;52.498;5.408;2022-10-16T09:55:17;10.77;;;2.00;;
19199;SDS011;9732;52.498;5.408;2022-10-16T09:57:55;13.25;;;2.17;;
19199;SDS011;9732;52.498;5.408;2022-10-16T10:00:22;15.00;;;2.00;;
19199;SDS011;9732;52.498;5.408;2022-10-16T10:02:49;12.48;;;2.13;;
19199;SDS011;9732;52.498;5.408;2022-10-16T10:05:17;10.82;;;1.70;;
19199;SDS011;9732;52.498;5.408;2022-10-16T10:07:52;15.70;;;2.17;;
19199;SDS011;9732;52.498;5.408;2022-10-16T10:10:22;10.52;;;1.90;;
19199;SDS011;9732;52.498;5.408;2022-10-16T10:12:50;7.88;;;2.10;;
19199;SDS011;9732;52.498;5.408;2022-10-16T10:15:19;9.60;;;2.10;;
19199;SDS011;9732;52.498;5.408;2022-10-16T10:17:47;9.20;;;2.28;;
19199;SDS011;9732;52.498;5.408;2022-10-16T10:20:21;17.00;;;2.45;;
19199;SDS011;9732;52.498;5.408;2022-10-16T10:22:50;9.88;;;1.50;;
19199;SDS011;9732;52.498;5.408;2022-10-16T10:28:20;10.02;;;1.65;;
19199;SDS011;9732;52.498;5.408;2022-10-16T10:31:03;8.73;;;1.95;;
19199;SDS011;9732;52.498;5.408;2022-10-16T10:33:41;12.25;;;1.83;;
19199;SDS011;9732;52.498;5.408;2022-10-16T10:36:13;16.00;;;2.17;;
19199;SDS011;9732;52.498;5.408;2022-10-16T10:38:49;13.07;;;1.63;;
19199;SDS011;9732;52.498;5.408;2022-10-16T10:41:26;9.85;;;1.83;;
19199;SDS011;9732;52.498;5.408;2022-10-16T10:44:07;13.32;;;1.95;;
19199;SDS011;9732;52.498;5.408;2022-10-16T10:46:45;7.00;;;1.80;;
19199;SDS011;9732;52.498;5.408;2022-10-16T10:49:19;10.93;;;2.25;;
19199;SDS011;9732;52.498;5.408;2022-10-16T10:52:02;7.55;;;1.60;;
19199;SDS011;9732;52.498;5.408;2022-10-16T10:54:46;9.68;;;1.50;;
19199;SDS011;9732;52.498;5.408;2022-10-16T10:57:20;9.52;;;1.50;;
19199;SDS011;9732;52.498;5.408;2022-10-16T10:59:56;9.82;;;1.67;;
19199;SDS011;9732;52.498;5.408;2022-10-16T11:02:44;9.93;;;1.45;;
19199;SDS011;9732;52.498;5.408;2022-10-16T11:05:28;14.93;;;1.88;;
19199;SDS011;9732;52.498;5.408;2022-10-16T11:08:00;6.50;;;1.45;;
19199;SDS011;9732;52.498;5.408;2022-10-16T11:10:30;17.58;;;1.80;;
19199;SDS011;9732;52.498;5.408;2022-10-16T11:13:09;15.77;;;1.90;;
19199;SDS011;9732;52.498;5.408;2022-10-16T11:15:43;5.88;;;1.65;;
19199;SDS011;9732;52.498;5.408;2022-10-16T11:18:15;14.65;;;2.30;;
19199;SDS011;9732;52.498;5.408;2022-10-16T11:20:47;15.98;;;1.92;;
19199;SDS011;9732;52.498;5.408;2022-10-16T11:23:18;11.40;;;2.00;;
19199;SDS011;9732;52.498;5.408;2022-10-16T11:25:51;15.38;;;1.92;;
19199;SDS011;9732;52.498;5.408;2022-10-16T11:28:20;17.98;;;1.83;;
19199;SDS011;9732;52.498;5.408;2022-10-16T11:30:53;11.18;;;1.85;;
19199;SDS011;9732;52.498;5.408;2022-10-16T11:33:29;10.57;;;1.75;;
19199;SDS011;9732;52.498;5.408;2022-10-16T11:36:03;8.52;;;1.70;;
19199;SDS011;9732;52.498;5.408;2022-10-16T11:38:38;11.40;;;1.65;;
19199;SDS011;9732;52.498;5.408;2022-10-16T11:41:14;11.57;;;1.55;;
19199;SDS011;9732;52.498;5.408;2022-10-16T11:43:48;14.80;;;1.90;;
19199;SDS011;9732;52.498;5.408;2022-10-16T11:46:22;14.73;;;2.05;;
19199;SDS011;9732;52.498;5.408;2022-10-16T11:48:54;6.63;;;1.70;;
19199;SDS011;9732;52.498;5.408;2022-10-16T11:51:30;11.05;;;1.63;;
19199;SDS011;9732;52.498;5.408;2022-10-16T11:54:01;14.43;;;1.58;;
19199;SDS011;9732;52.498;5.408;2022-10-16T11:56:35;10.90;;;1.52;;
19199;SDS011;9732;52.498;5.408;2022-10-16T11:59:06;10.10;;;1.58;;
19199;SDS011;9732;52.498;5.408;2022-10-16T12:01:42;8.15;;;1.70;;
19199;SDS011;9732;52.498;5.408;2022-10-16T12:04:16;11.85;;;2.35;;
19199;SDS011;9732;52.498;5.408;2022-10-16T12:06:49;10.75;;;1.98;;
19199;SDS011;9732;52.498;5.408;2022-10-16T12:09:22;11.40;;;1.85;;
19199;SDS011;9732;52.498;5.408;2022-10-16T12:11:52;15.15;;;1.65;;
19199;SDS011;9732;52.498;5.408;2022-10-16T12:14:33;10.07;;;1.73;;
19199;SDS011;9732;52.498;5.408;2022-10-16T12:17:03;6.97;;;1.25;;
19199;SDS011;9732;52.498;5.408;2022-10-16T12:19:57;9.57;;;1.33;;
19199;SDS011;9732;52.498;5.408;2022-10-16T12:22:27;9.00;;;1.55;;
19199;SDS011;9732;52.498;5.408;2022-10-16T12:24:56;10.05;;;1.65;;
19199;SDS011;9732;52.498;5.408;2022-10-16T12:27:24;15.88;;;2.25;;
19199;SDS011;9732;52.498;5.408;2022-10-16T12:29:54;10.10;;;1.50;;
19199;SDS011;9732;52.498;5.408;2022-10-16T12:32:24;10.32;;;1.95;;
19199;SDS011;9732;52.498;5.408;2022-10-16T12:34:55;11.65;;;1.15;;
19199;SDS011;9732;52.498;5.408;2022-10-16T12:37:25;8.25;;;1.20;;
19199;SDS011;9732;52.498;5.408;2022-10-16T12:39:54;8.65;;;1.17;;
19199;SDS011;9732;52.498;5.408;2022-10-16T12:42:23;16.35;;;2.40;;
19199;SDS011;9732;52.498;5.408;2022-10-16T12:45:00;8.65;;;1.40;;
19199;SDS011;9732;52.498;5.408;2022-10-16T12:47:38;7.05;;;1.15;;
19199;SDS011;9732;52.498;5.408;2022-10-16T12:50:29;6.85;;;1.15;;
19199;SDS011;9732;52.498;5.408;2022-10-16T12:52:58;8.40;;;1.10;;
19199;SDS011;9732;52.498;5.408;2022-10-16T12:55:25;9.68;;;1.52;;
19199;SDS011;9732;52.498;5.408;2022-10-16T12:58:00;14.45;;;1.70;;
19199;SDS011;9732;52.498;5.408;2022-10-16T13:00:36;3.60;;;1.40;;
19199;SDS011;9732;52.498;5.408;2022-10-16T13:06:17;11.52;;;1.48;;
19199;SDS011;9732;52.498;5.408;2022-10-16T13:09:05;6.30;;;0.77;;
19199;SDS011;9732;52.498;5.408;2022-10-16T13:11:49;6.25;;;1.35;;
19199;SDS011;9732;52.498;5.408;2022-10-16T13:14:30;8.85;;;1.05;;
19199;SDS011;9732;52.498;5.408;2022-10-16T13:17:19;6.78;;;0.90;;
19199;SDS011;9732;52.498;5.408;2022-10-16T13:19:53;6.47;;;0.95;;
19199;SDS011;9732;52.498;5.408;2022-10-16T13:22:29;7.53;;;1.20;;
19199;SDS011;9732;52.498;5.408;2022-10-16T13:25:04;3.58;;;0.93;;
19199;SDS011;9732;52.498;5.408;2022-10-16T13:27:45;11.52;;;1.33;;
19199;SDS011;9732;52.498;5.408;2022-10-16T13:30:18;7.47;;;1.33;;
19199;SDS011;9732;52.498;5.408;2022-10-16T13:32:48;12.57;;;1.38;;
19199;SDS011;9732;52.498;5.408;2022-10-16T13:35:21;6.65;;;1.00;;
19199;SDS011;9732;52.498;5.408;2022-10-16T13:37:50;10.85;;;1.00;;
19199;SDS011;9732;52.498;5.408;2022-10-16T13:40:18;10.18;;;1.63;;
19199;SDS011;9732;52.498;5.408;2022-10-16T13:42:47;10.23;;;1.60;;
19199;SDS011;9732;52.498;5.408;2022-10-16T13:45:18;4.13;;;1.00;;
19199;SDS011;9732;52.498;5.408;2022-10-16T13:47:46;6.65;;;1.25;;
19199;SDS011;9732;52.498;5.408;2022-10-16T13:50:13;7.43;;;1.30;;
19199;SDS011;9732;52.498;5.408;2022-10-16T13:52:42;4.68;;;1.00;;
19199;SDS011;9732;52.498;5.408;2022-10-16T13:55:14;6.72;;;1.27;;
19199;SDS011;9732;52.498;5.408;2022-10-16T13:57:42;7.35;;;1.25;;
19199;SDS011;9732;52.498;5.408;2022-10-16T14:00:19;8.82;;;1.52;;
19199;SDS011;9732;52.498;5.408;2022-10-16T14:02:50;9.07;;;1.13;;
19199;SDS011;9732;52.498;5.408;2022-10-16T14:05:21;8.13;;;1.02;;
19199;SDS011;9732;52.498;5.408;2022-10-16T14:07:48;9.13;;;1.23;;
19199;SDS011;9732;52.498;5.408;2022-10-16T14:10:22;9.70;;;1.65;;
19199;SDS011;9732;52.498;5.408;2022-10-16T14:12:54;7.45;;;1.30;;
19199;SDS011;9732;52.498;5.408;2022-10-16T14:15:22;5.53;;;1.00;;
19199;SDS011;9732;52.498;5.408;2022-10-16T14:17:50;6.55;;;1.10;;
19199;SDS011;9732;52.498;5.408;2022-10-16T14:20:20;6.95;;;1.67;;
19199;SDS011;9732;52.498;5.408;2022-10-16T14:22:57;11.45;;;1.35;;
19199;SDS011;9732;52.498;5.408;2022-10-16T14:25:27;7.00;;;1.63;;
19199;SDS011;9732;52.498;5.408;2022-10-16T14:27:57;8.73;;;1.23;;
19199;SDS011;9732;52.498;5.408;2022-10-16T14:30:28;10.02;;;1.52;;
19199;SDS011;9732;52.498;5.408;2022-10-16T14:32:57;12.00;;;1.77;;
19199;SDS011;9732;52.498;5.408;2022-10-16T14:35:27;8.40;;;1.38;;
19199;SDS011;9732;52.498;5.408;2022-10-16T14:37:56;7.15;;;1.25;;
19199;SDS011;9732;52.498;5.408;2022-10-16T14:40:25;10.13;;;1.30;;
19199;SDS011;9732;52.498;5.408;2022-10-16T14:42:55;8.13;;;1.13;;
19199;SDS011;9732;52.498;5.408;2022-10-16T14:45:24;5.85;;;1.40;;
19199;SDS011;9732;52.498;5.408;2022-10-16T14:47:54;10.68;;;1.77;;
19199;SDS011;9732;52.498;5.408;2022-10-16T14:50:23;11.55;;;1.65;;
19199;SDS011;9732;52.498;5.408;2022-10-16T14:52:49;11.30;;;1.85;;
19199;SDS011;9732;52.498;5.408;2022-10-16T14:55:16;9.32;;;1.42;;
19199;SDS011;9732;52.498;5.408;2022-10-16T14:57:45;10.20;;;1.33;;
19199;SDS011;9732;52.498;5.408;2022-10-16T15:00:14;5.10;;;1.02;;
19199;SDS011;9732;52.498;5.408;2022-10-16T15:02:44;8.82;;;1.50;;
19199;SDS011;9732;52.498;5.408;2022-10-16T15:05:12;5.93;;;1.25;;
19199;SDS011;9732;52.498;5.408;2022-10-16T15:07:42;15.52;;;1.30;;
19199;SDS011;9732;52.498;5.408;2022-10-16T15:10:09;8.70;;;1.92;;
19199;SDS011;9732;52.498;5.408;2022-10-16T15:12:36;9.48;;;1.35;;
19199;SDS011;9732;52.498;5.408;2022-10-16T15:15:11;10.23;;;1.88;;
19199;SDS011;9732;52.498;5.408;2022-10-16T15:17:49;5.80;;;1.70;;
19199;SDS011;9732;52.498;5.408;2022-10-16T15:20:17;7.50;;;1.20;;
19199;SDS011;9732;52.498;5.408;2022-10-16T15:22:44;6.20;;;1.50;;
19199;SDS011;9732;52.498;5.408;2022-10-16T15:25:12;10.23;;;1.15;;